createdAt,value
2022-12-11T00:02:40.682Z,63.73
2022-12-11T00:05:48.148Z,63.29
2022-12-11T00:08:56.529Z,62.56
2022-12-11T00:12:02.634Z,62.59
2022-12-11T00:15:12.027Z,62.27
2022-12-11T00:18:20.484Z,62.78
2022-12-11T00:21:26.767Z,62.08
2022-12-11T00:24:33.658Z,60.86
2022-12-11T00:27:40.302Z,61.53
2022-12-11T00:30:46.452Z,61.88
2022-12-11T00:33:55.564Z,61.83
2022-12-11T00:37:01.914Z,61.76
2022-12-11T00:40:10.230Z,62.37
2022-12-11T00:43:17.254Z,62.37
2022-12-11T00:46:23.746Z,62.72
2022-12-11T00:49:32.245Z,62.60
2022-12-11T00:52:39.020Z,62.89
2022-12-11T00:55:46.522Z,62.81
2022-12-11T00:58:53.045Z,62.70
2022-12-11T01:01:58.833Z,62.77
2022-12-11T01:05:09.579Z,64.39
2022-12-11T01:08:15.194Z,62.58
2022-12-11T01:11:21.626Z,62.22
2022-12-11T01:14:27.315Z,62.21
2022-12-11T01:17:33.839Z,62.26
2022-12-11T01:20:45.305Z,62.12
2022-12-11T01:23:54.052Z,62.09
2022-12-11T01:26:59.688Z,62.19
2022-12-11T01:30:08.078Z,62.23
2022-12-11T01:33:13.752Z,62.22
2022-12-11T01:36:25.157Z,62.06
2022-12-11T01:39:31.007Z,62.18
2022-12-11T01:42:38.436Z,62.81
2022-12-11T01:45:47.559Z,62.44
2022-12-11T01:48:54.143Z,62.56
2022-12-11T01:52:10.728Z,62.00
2022-12-11T01:55:18.129Z,61.66
2022-12-11T01:58:29.689Z,62.39
2022-12-11T02:01:42.948Z,62.71
2022-12-11T02:04:51.199Z,62.92
2022-12-11T02:08:06.030Z,62.48
2022-12-11T02:11:26.103Z,61.87
2022-12-11T02:14:46.286Z,62.48
2022-12-11T02:18:03.011Z,62.44
2022-12-11T02:21:23.596Z,62.17
2022-12-11T02:25:07.122Z,62.82
2022-12-11T02:28:28.354Z,63.00
2022-12-11T02:31:44.331Z,62.74
2022-12-11T02:35:05.839Z,62.93
2022-12-11T02:38:21.031Z,64.13
2022-12-11T02:41:31.838Z,64.37
2022-12-11T02:44:43.457Z,64.39
2022-12-11T02:47:53.415Z,64.41
2022-12-11T02:51:04.104Z,64.81
2022-12-11T02:54:16.672Z,64.72
2022-12-11T02:57:34.358Z,63.71
2022-12-11T03:00:42.870Z,62.95
2022-12-11T03:03:49.333Z,63.17
2022-12-11T03:07:01.635Z,63.39
2022-12-11T03:10:12.286Z,63.44
2022-12-11T03:13:25.612Z,63.57
2022-12-11T03:16:41.312Z,63.26
2022-12-11T03:19:58.604Z,64.16
2022-12-11T03:23:21.917Z,64.42
2022-12-11T03:26:29.922Z,62.83
2022-12-11T03:29:45.525Z,63.59
2022-12-11T03:33:01.822Z,63.44
2022-12-11T03:36:14.613Z,63.17
2022-12-11T03:39:30.696Z,63.87
2022-12-11T03:42:39.908Z,63.68
2022-12-11T03:45:49.315Z,62.55
2022-12-11T03:49:06.744Z,62.32
2022-12-11T03:52:17.437Z,62.60
2022-12-11T03:55:27.841Z,62.37
2022-12-11T03:58:33.541Z,62.38
2022-12-11T04:01:40.051Z,62.81
2022-12-11T04:04:48.193Z,62.22
2022-12-11T04:07:54.468Z,62.82
2022-12-11T04:11:12.468Z,63.17
2022-12-11T04:14:31.155Z,62.82
2022-12-11T04:17:52.034Z,62.47
2022-12-11T04:21:13.088Z,62.48
2022-12-11T04:24:18.608Z,64.12
2022-12-11T04:27:49.530Z,63.38
2022-12-11T04:30:55.094Z,63.78
2022-12-11T04:34:01.737Z,63.40
2022-12-11T04:37:09.849Z,63.09
2022-12-11T04:40:20.805Z,62.68
2022-12-11T04:43:26.244Z,63.50
2022-12-11T04:46:33.404Z,62.73
2022-12-11T04:49:39.064Z,64.43
2022-12-11T04:52:47.962Z,63.99
2022-12-11T04:55:53.518Z,64.71
2022-12-11T04:58:59.814Z,64.63
2022-12-11T05:02:05.411Z,63.89
2022-12-11T05:05:14.643Z,63.78
2022-12-11T05:08:24.365Z,63.90
2022-12-11T05:11:30.829Z,63.63
2022-12-11T05:14:36.256Z,64.05
2022-12-11T05:17:42.714Z,65.13
2022-12-11T05:20:48.858Z,63.78
2022-12-11T05:23:57.805Z,63.92
2022-12-11T05:27:03.318Z,63.40
2022-12-11T05:30:12.203Z,64.76
2022-12-11T05:33:18.095Z,64.85
2022-12-11T05:36:28.264Z,66.15
2022-12-11T05:39:36.457Z,67.31
2022-12-11T05:42:42.761Z,66.73
2022-12-11T05:45:48.247Z,67.37
2022-12-11T05:48:58.619Z,66.66
2022-12-11T05:52:04.087Z,66.60
2022-12-11T05:55:13.768Z,66.78
2022-12-11T05:58:19.331Z,65.53
2022-12-11T06:01:29.512Z,67.14
2022-12-11T06:04:35.003Z,68.19
2022-12-11T06:07:41.284Z,66.95
2022-12-11T06:10:53.033Z,67.17
2022-12-11T06:14:00.047Z,66.69
2022-12-11T06:17:05.591Z,66.34
2022-12-11T06:20:13.066Z,66.18
2022-12-11T06:23:18.703Z,65.84
2022-12-11T06:26:29.515Z,67.05
2022-12-11T06:29:35.109Z,66.73
2022-12-11T06:32:41.457Z,66.18
2022-12-11T06:35:46.958Z,65.50
2022-12-11T06:38:53.403Z,66.51
2022-12-11T06:42:01.375Z,69.78
2022-12-11T06:45:09.578Z,70.49
2022-12-11T06:48:15.413Z,71.86
2022-12-11T06:51:25.517Z,71.67
2022-12-11T06:54:31.307Z,71.44
2022-12-11T06:57:40.347Z,69.61
2022-12-11T07:00:46.228Z,69.73
2022-12-11T07:03:55.468Z,70.28
2022-12-11T07:07:01.065Z,70.46
2022-12-11T07:10:08.858Z,70.18
2022-12-11T07:13:17.011Z,71.70
2022-12-11T07:16:23.365Z,70.00
2022-12-11T07:19:29.753Z,71.94
2022-12-11T07:22:37.596Z,72.54
2022-12-11T07:25:46.461Z,71.47
2022-12-11T07:28:56.208Z,68.70
2022-12-11T07:32:01.795Z,72.37
2022-12-11T07:35:09.651Z,70.63
2022-12-11T07:38:15.620Z,71.92
2022-12-11T07:41:22.152Z,73.12
2022-12-11T07:44:34.630Z,72.64
2022-12-11T07:47:42.972Z,70.15
2022-12-11T07:50:48.760Z,70.32
2022-12-11T07:53:57.494Z,70.67
2022-12-11T07:57:03.232Z,72.55
2022-12-11T08:00:14.491Z,72.33
2022-12-11T08:03:20.039Z,72.57
2022-12-11T08:06:31.318Z,72.12
2022-12-11T08:09:37.034Z,70.63
2022-12-11T08:12:43.330Z,71.89
2022-12-11T08:15:51.470Z,71.23
2022-12-11T08:18:58.351Z,72.40
2022-12-11T08:22:03.798Z,73.35
2022-12-11T08:25:11.639Z,73.22
2022-12-11T08:28:17.310Z,74.52
2022-12-11T08:31:26.986Z,74.33
2022-12-11T08:34:32.666Z,70.60
2022-12-11T08:37:39.232Z,71.93
2022-12-11T08:40:44.961Z,69.99
2022-12-11T08:43:55.045Z,69.19
2022-12-11T08:47:05.576Z,71.77
2022-12-11T08:50:13.837Z,72.14
2022-12-11T08:53:19.388Z,69.42
2022-12-11T08:56:26.570Z,70.79
2022-12-11T08:59:31.995Z,69.87
2022-12-11T09:02:40.957Z,71.77
2022-12-11T09:05:46.568Z,73.06
2022-12-11T09:08:56.279Z,71.53
2022-12-11T09:12:02.152Z,72.04
2022-12-11T09:15:10.281Z,72.79
2022-12-11T09:18:18.735Z,72.90
2022-12-11T09:21:29.838Z,73.65
2022-12-11T09:24:35.548Z,71.51
2022-12-11T09:27:41.801Z,71.38
2022-12-11T09:30:47.278Z,69.06
2022-12-11T09:34:00.278Z,72.33
2022-12-11T09:37:05.700Z,70.52
2022-12-11T09:40:15.240Z,71.15
2022-12-11T09:43:40.961Z,72.14
2022-12-11T09:46:51.576Z,71.55
2022-12-11T09:50:18.464Z,69.21
2022-12-11T09:53:35.794Z,71.47
2022-12-11T09:56:52.964Z,73.39
2022-12-11T10:00:31.862Z,72.26
2022-12-11T10:04:13.430Z,73.94
2022-12-11T10:07:40.992Z,71.96
2022-12-11T10:11:00.016Z,70.31
2022-12-11T10:14:23.332Z,70.90
2022-12-11T10:17:35.278Z,70.58
2022-12-11T10:20:43.034Z,71.78
2022-12-11T10:24:01.060Z,69.33
2022-12-11T10:27:21.447Z,66.86
2022-12-11T10:30:34.716Z,67.81
2022-12-11T10:33:59.149Z,67.82
2022-12-11T10:37:06.086Z,69.30
2022-12-11T10:40:16.761Z,70.63
2022-12-11T10:43:22.766Z,68.37
2022-12-11T10:46:33.289Z,71.89
2022-12-11T10:49:41.889Z,70.58
2022-12-11T10:52:48.720Z,72.89
2022-12-11T10:55:58.197Z,70.56
2022-12-11T10:59:07.264Z,70.56
2022-12-11T11:02:28.967Z,70.79
2022-12-11T11:05:38.951Z,71.06
2022-12-11T11:08:47.841Z,73.54
2022-12-11T11:11:56.678Z,69.79
2022-12-11T11:15:03.768Z,71.05
2022-12-11T11:18:27.176Z,70.06
2022-12-11T11:21:33.095Z,70.89
2022-12-11T11:24:45.530Z,70.29
2022-12-11T11:28:00.998Z,70.82
2022-12-11T11:31:12.313Z,71.14
2022-12-11T11:34:26.303Z,72.51
2022-12-11T11:37:37.169Z,73.30
2022-12-11T11:40:53.957Z,72.68
2022-12-11T11:44:10.171Z,72.89
2022-12-11T11:47:25.393Z,71.23
2022-12-11T11:50:39.001Z,72.11
2022-12-11T11:53:51.189Z,69.90
2022-12-11T11:57:02.039Z,68.86
2022-12-11T12:00:22.776Z,72.27
2022-12-11T12:03:31.803Z,70.40
2022-12-11T12:07:13.563Z,72.04
2022-12-11T12:10:32.260Z,70.97
2022-12-11T12:13:57.191Z,71.79
2022-12-11T12:17:26.489Z,69.11
2022-12-11T12:20:51.063Z,71.24
2022-12-11T12:24:17.912Z,71.17
2022-12-11T12:27:52.219Z,70.85
2022-12-11T12:31:24.846Z,71.07
2022-12-11T12:34:58.446Z,71.96
2022-12-11T12:38:17.794Z,72.59
2022-12-11T12:41:38.104Z,71.46
2022-12-11T12:45:01.007Z,70.25
2022-12-11T12:48:06.631Z,70.55
2022-12-11T12:51:19.160Z,71.26
2022-12-11T12:54:29.109Z,71.62
2022-12-11T12:57:37.974Z,70.47
2022-12-11T13:00:46.904Z,71.63
2022-12-11T13:04:01.927Z,71.32
2022-12-11T13:07:27.308Z,70.30
2022-12-11T13:10:38.086Z,71.33
2022-12-11T13:13:54.506Z,72.45
2022-12-11T13:17:31.971Z,71.26
2022-12-11T13:20:51.201Z,74.94
2022-12-11T13:24:26.885Z,75.10
2022-12-11T13:27:43.685Z,71.23
2022-12-11T13:31:26.211Z,72.70
2022-12-11T13:34:39.357Z,73.21
2022-12-11T13:37:49.893Z,69.49
2022-12-11T13:41:01.091Z,71.88
2022-12-11T13:44:11.193Z,72.23
2022-12-11T13:47:22.699Z,71.21
2022-12-11T13:50:34.780Z,70.79
2022-12-11T13:53:40.241Z,73.34
2022-12-11T13:57:02.707Z,71.71
2022-12-11T14:00:23.510Z,73.43
2022-12-11T14:03:30.420Z,71.92
2022-12-11T14:06:42.200Z,70.35
2022-12-11T14:09:49.549Z,70.34
2022-12-11T14:13:06.912Z,71.01
2022-12-11T14:16:26.273Z,72.30
2022-12-11T14:19:32.230Z,70.58
2022-12-11T14:22:38.525Z,70.47
2022-12-11T14:25:44.013Z,72.38
2022-12-11T14:28:54.285Z,72.26
2022-12-11T14:32:06.342Z,72.43
2022-12-11T14:35:34.263Z,69.61
2022-12-11T14:38:52.217Z,71.53
2022-12-11T14:42:07.648Z,73.51
2022-12-11T14:45:25.681Z,74.95
2022-12-11T14:48:40.756Z,75.17
2022-12-11T14:51:48.005Z,76.93
2022-12-11T14:55:03.391Z,72.01
2022-12-11T14:58:21.809Z,71.76
2022-12-11T15:01:34.459Z,70.24
2022-12-11T15:04:42.516Z,71.89
2022-12-11T15:08:03.105Z,72.92
2022-12-11T15:11:14.266Z,72.76
2022-12-11T15:14:25.581Z,72.40
2022-12-11T15:17:37.350Z,72.52
2022-12-11T15:20:44.423Z,74.73
2022-12-11T15:23:59.249Z,72.40
2022-12-11T15:27:06.095Z,73.22
2022-12-11T15:30:32.881Z,72.19
2022-12-11T15:33:51.325Z,74.32
2022-12-11T15:36:59.230Z,71.23
2022-12-11T15:40:08.330Z,71.85
2022-12-11T15:43:16.208Z,71.91
2022-12-11T15:46:23.126Z,70.97
2022-12-11T15:49:32.624Z,70.66
2022-12-11T15:52:39.118Z,72.13
2022-12-11T15:55:44.853Z,71.74
2022-12-11T15:58:53.336Z,72.40
2022-12-11T16:01:58.920Z,71.88
2022-12-11T16:05:08.854Z,72.26
2022-12-11T16:08:18.749Z,72.81
2022-12-11T16:11:25.077Z,72.57
2022-12-11T16:14:30.545Z,72.78
2022-12-11T16:17:39.115Z,71.73
2022-12-11T16:20:49.085Z,72.10
2022-12-11T16:23:55.381Z,70.49
2022-12-11T16:27:01.562Z,73.03
2022-12-11T16:30:10.912Z,71.33
2022-12-11T16:33:19.228Z,72.57
2022-12-11T16:36:28.323Z,71.43
2022-12-11T16:39:33.979Z,71.56
2022-12-11T16:42:41.543Z,72.67
2022-12-11T16:45:47.066Z,71.90
2022-12-11T16:48:53.764Z,72.48
2022-12-11T16:52:01.788Z,71.40
2022-12-11T16:55:10.061Z,71.40
2022-12-11T16:58:20.160Z,72.88
2022-12-11T17:01:26.828Z,71.03
2022-12-11T17:04:32.778Z,73.77
2022-12-11T17:07:41.883Z,71.90
2022-12-11T17:10:47.469Z,70.56
2022-12-11T17:13:58.257Z,71.33
2022-12-11T17:17:04.049Z,72.96
2022-12-11T17:20:13.140Z,71.56
2022-12-11T17:23:22.314Z,70.82
2022-12-11T17:26:28.899Z,70.91
2022-12-11T17:29:35.094Z,70.24
2022-12-11T17:32:41.541Z,69.97
2022-12-11T17:35:47.318Z,72.84
2022-12-11T17:38:57.157Z,72.11
2022-12-11T17:42:03.275Z,70.73
2022-12-11T17:45:11.920Z,70.71
2022-12-11T17:48:19.342Z,70.04
2022-12-11T17:51:29.396Z,72.49
2022-12-11T17:54:39.361Z,71.78
2022-12-11T17:57:45.758Z,68.98
2022-12-11T18:00:57.161Z,69.98
2022-12-11T18:04:04.441Z,70.11
2022-12-11T18:07:10.142Z,70.38
2022-12-11T18:10:20.668Z,70.69
2022-12-11T18:13:27.699Z,70.88
2022-12-11T18:16:38.151Z,70.78
2022-12-11T18:19:46.221Z,69.81
2022-12-11T18:22:53.875Z,71.51
2022-12-11T18:26:02.296Z,70.20
2022-12-11T18:29:09.947Z,70.47
2022-12-11T18:32:15.763Z,71.62
2022-12-11T18:35:23.621Z,72.77
2022-12-11T18:38:29.322Z,69.37
2022-12-11T18:41:38.839Z,70.40
2022-12-11T18:44:45.600Z,68.70
2022-12-11T18:47:55.921Z,70.03
2022-12-11T18:51:01.936Z,69.37
2022-12-11T18:54:09.820Z,69.31
2022-12-11T18:57:18.102Z,68.79
2022-12-11T19:00:25.247Z,68.67
2022-12-11T19:03:30.981Z,69.08
2022-12-11T19:06:38.336Z,68.14
2022-12-11T19:09:48.126Z,68.45
2022-12-11T19:12:57.535Z,70.68
2022-12-11T19:16:23.086Z,69.24
2022-12-11T19:19:31.442Z,70.57
2022-12-11T19:22:37.700Z,70.23
2022-12-11T19:25:46.908Z,71.17
2022-12-11T19:28:57.051Z,70.70
2022-12-11T19:32:05.809Z,68.24
2022-12-11T19:35:12.104Z,69.41
2022-12-11T19:38:18.726Z,69.05
2022-12-11T19:41:28.063Z,68.60
2022-12-11T19:44:37.021Z,70.20
2022-12-11T19:47:42.568Z,68.93
2022-12-11T19:50:50.183Z,69.95
2022-12-11T19:53:56.000Z,67.86
2022-12-11T19:57:02.441Z,68.65
2022-12-11T20:00:14.615Z,68.47
2022-12-11T20:03:22.208Z,69.48
2022-12-11T20:06:29.623Z,66.91
2022-12-11T20:09:40.562Z,69.88
2022-12-11T20:12:46.606Z,68.55
2022-12-11T20:15:55.676Z,67.40
2022-12-11T20:19:01.331Z,67.61
2022-12-11T20:22:07.753Z,67.97
2022-12-11T20:25:13.706Z,67.85
2022-12-11T20:28:20.208Z,66.54
2022-12-11T20:31:29.852Z,66.41
2022-12-11T20:34:36.351Z,66.88
2022-12-11T20:37:42.915Z,67.19
2022-12-11T20:40:49.415Z,66.52
2022-12-11T20:43:56.240Z,66.22
2022-12-11T20:47:06.863Z,64.84
2022-12-11T20:50:13.053Z,65.45
2022-12-11T20:53:19.385Z,65.70
2022-12-11T20:56:25.873Z,66.59
2022-12-11T20:59:32.618Z,65.26
2022-12-11T21:02:41.021Z,64.43
2022-12-11T21:05:50.270Z,64.39
2022-12-11T21:08:58.973Z,64.17
2022-12-11T21:12:05.921Z,65.86
2022-12-11T21:15:14.274Z,66.69
2022-12-11T21:18:23.536Z,67.29
2022-12-11T21:21:29.241Z,65.46
2022-12-11T21:24:36.183Z,64.86
2022-12-11T21:27:42.033Z,64.12
2022-12-11T21:30:51.744Z,63.52
2022-12-11T21:34:00.257Z,64.50
2022-12-11T21:37:06.700Z,63.57
2022-12-11T21:40:14.488Z,64.59
2022-12-11T21:43:20.945Z,64.92
2022-12-11T21:46:28.907Z,65.28
2022-12-11T21:49:37.915Z,64.80
2022-12-11T21:52:43.729Z,64.03
2022-12-11T21:55:50.026Z,65.35
2022-12-11T21:59:01.538Z,65.84
2022-12-11T22:02:08.070Z,64.53
2022-12-11T22:05:16.341Z,66.15
2022-12-11T22:08:22.800Z,64.44
2022-12-11T22:11:34.338Z,65.51
2022-12-11T22:14:40.692Z,64.79
2022-12-11T22:17:47.599Z,64.18
2022-12-11T22:20:57.726Z,63.81
2022-12-11T22:24:03.403Z,63.69
2022-12-11T22:27:10.320Z,63.75
2022-12-11T22:30:17.175Z,65.05
2022-12-11T22:33:23.587Z,64.09
2022-12-11T22:36:31.828Z,65.61
2022-12-11T22:39:38.389Z,64.22
2022-12-11T22:42:44.262Z,63.06
2022-12-11T22:45:50.722Z,66.18
2022-12-11T22:48:57.307Z,64.07
2022-12-11T22:52:06.591Z,63.34
2022-12-11T22:55:12.743Z,63.68
2022-12-11T22:58:21.921Z,63.38
2022-12-11T23:01:30.401Z,63.64
2022-12-11T23:04:36.835Z,64.93
2022-12-11T23:07:45.090Z,63.80
2022-12-11T23:10:51.546Z,63.50
2022-12-11T23:13:58.642Z,64.58
2022-12-11T23:17:05.583Z,64.02
2022-12-11T23:20:13.259Z,64.35
2022-12-11T23:23:22.055Z,63.67
2022-12-11T23:26:29.319Z,64.67
2022-12-11T23:29:36.024Z,65.08
2022-12-11T23:32:41.585Z,67.41
2022-12-11T23:35:48.183Z,64.61
2022-12-11T23:38:57.834Z,64.66
2022-12-11T23:42:04.257Z,65.06
2022-12-11T23:45:11.899Z,65.53
2022-12-11T23:48:18.736Z,64.66
2022-12-11T23:51:26.639Z,66.07
2022-12-11T23:54:36.317Z,64.68
2022-12-11T23:57:44.363Z,63.89
